Pagrindinis puslapis
METAR-TAF:

METAR-TAF

Oro uostai :

Nordholz, Vokietija

platuma: 53-46N, ilguma: 008-40E, Aukštis: 23 m

Dabartinis oras

Ataskaita buvo paskelbta 1 valandą ir 2 minutes, ne 02:20 UTC
Vėjas 19 kt iš Vakarų/Pietvakarių su gūsio iki 35 kt
Temperatūra 8°C
Drėgmė 71%
Slėgis 1000 hPa
Matomumas 10 km arba daugiau
Išsisklaidę debesys ne aukštis 3000 ft

METAR: ETMN 170220Z 24019G35KT 9999 SCT030 08/03 Q1000 BLU+

Laikas: 04:22 (03:22 UTC)


TAF: trūkstamas

Orai ataskaitas ir orų prognozės (METAR, TAF).

turimą stotys yra geltonos ir raudonos taškus žemėlapyje.

Perkelti pele per norėdami pamatyti stoties vardą.

Tada spustelėkite, norėdami matyti oro stebėjimo ir prognozės.

Norėdami pakeisti žemėlapį: spustelėkite ant žalios mygtukų su juodo kryžiaus žemyn,; žalią mygtuką su brūkšneliu, jei norite nutolinti; arba žalių rodyklių gretimoms žemėlapius.


METAR-TAF: